This is the latest recevied weather packets stored in our database for station/object W4CKA. If no packets are shown the sender has not sent any weather packets the latest 10 day(s).
| Time | Temp. | Humidity | Pressure | Rain* | Wind** | Luminosity | Snow |
|---|---|---|---|---|---|---|---|
| 1787593563 | 26.67° C | 60% | 1059.5 hPa | 0 mm | - | 674 W/m² | - |
| 1787592960 | 26.11° C | 64% | 1059.6 hPa | 0 mm | - | 679 W/m² | - |
| 1787592354 | 25.56° C | 66% | 1059.6 hPa | 0 mm | - | 711 W/m² | - |
| 1787591751 | 26.67° C | 65% | 1059.6 hPa | 0 mm | - | 576 W/m² | - |
| 1787591148 | 26.11° C | 66% | 1059.6 hPa | 0 mm | - | 635 W/m² | - |
| 1787590545 | 25.56° C | 67% | 1059.6 hPa | 0 mm | - | 626 W/m² | - |
| 1787589941 | 24.44° C | 64% | 1059.5 hPa | 0 mm | - | 185 W/m² | - |
| 1787589337 | 25.56° C | 69% | 1059.7 hPa | 0 mm | - | 718 W/m² | - |
| 1787588734 | 23.89° C | 79% | 1059.7 hPa | 0 mm | - | 372 W/m² | - |
| 1787588131 | 24.44° C | 72% | 1059.9 hPa | 0 mm | - | 702 W/m² | - |
| 1787587526 | 23.89° C | 75% | 1060.1 hPa | 0 mm | - | 276 W/m² | - |
| 1787586925 | 25° C | 71% | 1060.2 hPa | 0 mm | - | 768 W/m² | - |
| 1787586321 | 25° C | 73% | 1060.2 hPa | 0 mm | - | 590 W/m² | - |
| 1787585719 | 23.89° C | 77% | 1060.3 hPa | 0 mm | - | 590 W/m² | - |
| 1787585114 | 23.33° C | 76% | 1060.1 hPa | 0 mm | - | 547 W/m² | - |
| 1787584514 | 23.33° C | 81% | 1060.1 hPa | 0 mm | - | 544 W/m² | - |
| 1787583914 | 23.89° C | 82% | 1060.2 hPa | 0 mm | - | 531 W/m² | - |
| 1787583308 | 22.22° C | 85% | 1060.2 hPa | 0 mm | - | 465 W/m² | - |
| 1787582703 | 22.22° C | 85% | 1060.3 hPa | 0 mm | - | 546 W/m² | - |
| 1787582099 | 21.11° C | 86% | 1060.2 hPa | 0 mm | - | 480 W/m² | - |
| 1787581495 | 22.22° C | 87% | 1060.2 hPa | 0 mm | - | 448 W/m² | - |
| 1787580895 | 21.67° C | 85% | 1060.3 hPa | 0 mm | - | 306 W/m² | - |
| 1787580292 | 21.11° C | 89% | 1060.3 hPa | 0 mm | - | 360 W/m² | - |
| 1787579688 | 21.67° C | 87% | 1060.3 hPa | 0 mm | - | 279 W/m² | - |
| 1787579084 | 21.11° C | 87% | 1060.3 hPa | 0 mm | - | 309 W/m² | - |
* Rain latest hour (hover to see other rain measurements)
** Current wind speed in m/s (hover to see current wind gust speed)